Time,TemperatureF,DewpointF,PressureIn,WindDirection,WindDirectionDegrees,WindSpeedMPH,WindSpeedGustMPH,Humidity,HourlyPrecipIn,Conditions,Clouds,dailyrainin,SolarRadiationWatts/m^2,SoftwareType,DateUTC
2013-06-17 00:01:00,68.0,65.3,29.88,WSW,243,1.2,0.0,91,0.00,RA,,0.00,0.0,WeatherDisplay:10.37,2013-06-17 04:01:00,
2013-06-17 00:02:00,68.0,65.3,29.88,WSW,243,0.0,0.0,91,0.00,RA,,0.00,0.0,WeatherDisplay:10.37,2013-06-17 04:02:00,
2013-06-17 00:07:00,67.7,65.0,29.88,WSW,243,0.0,0.0,91,0.00,RA,,0.00,0.0,WeatherDisplay:10.37,2013-06-17 04:07:00,
2013-06-17 00:12:00,67.5,65.1,29.88,WSW,243,1.2,1.2,92,0.00,RA,,0.00,0.0,WeatherDisplay:10.37,2013-06-17 04:12:00,
2013-06-17 00:17:00,67.4,65.0,29.88,WSW,243,1.2,0.0,92,0.00,RA,,0.00,0.0,WeatherDisplay:10.37,2013-06-17 04:17:00,
2013-06-17 00:22:00,67.3,65.2,29.88,WSW,243,1.2,1.2,93,0.00,RA,,0.00,0.0,WeatherDisplay:10.37,2013-06-17 04:22:00,
2013-06-17 00:27:00,67.3,65.2,29.88,WSW,243,2.3,2.3,93,0.00,RA,,0.00,0.0,WeatherDisplay:10.37,2013-06-17 04:27:00,
2013-06-17 00:32:00,67.2,65.1,29.88,WSW,243,0.0,0.0,93,0.00,RA,,0.00,0.0,WeatherDisplay:10.37,2013-06-17 04:32:00,
2013-06-17 00:37:00,67.1,65.0,29.88,WSW,243,0.0,0.0,93,0.00,RA,,0.00,0.0,WeatherDisplay:10.37,2013-06-17 04:37:00,
2013-06-17 00:42:00,66.9,64.8,29.88,WSW,243,0.0,0.0,93,0.00,RA,,0.00,0.0,WeatherDisplay:10.37,2013-06-17 04:42:00,
2013-06-17 00:47:00,66.8,64.7,29.88,WSW,243,0.0,0.0,93,0.00,RA,,0.00,0.0,WeatherDisplay:10.37,2013-06-17 04:47:00,
2013-06-17 00:52:00,66.8,65.0,29.88,WSW,243,1.2,1.2,94,0.00,RA,,0.00,0.0,WeatherDisplay:10.37,2013-06-17 04:52:00,
2013-06-17 00:57:00,66.7,64.9,29.88,WSW,243,1.2,0.0,94,0.00,RA,,0.00,0.0,WeatherDisplay:10.37,2013-06-17 04:57:00,
2013-06-17 01:02:00,66.7,64.9,29.88,WSW,243,1.2,1.2,94,0.00,CLR,,0.00,0.0,WeatherDisplay:10.37,2013-06-17 05:02:00,
2013-06-17 01:07:00,66.8,65.0,29.88,WSW,243,1.0,0.0,94,0.00,CLR,,0.00,0.0,WeatherDisplay:10.37,2013-06-17 05:07:00,
2013-06-17 01:12:00,66.9,65.1,29.88,WSW,243,0.0,0.0,94,0.00,CLR,,0.00,0.0,WeatherDisplay:10.37,2013-06-17 05:12:00,
2013-06-17 01:17:00,67.1,65.3,29.88,WSW,243,0.0,0.0,94,0.00,CLR,,0.00,0.0,WeatherDisplay:10.37,2013-06-17 05:17:00,
2013-06-17 01:22:00,67.2,65.1,29.88,WSW,243,0.0,0.0,93,0.00,CLR,,0.00,0.0,WeatherDisplay:10.37,2013-06-17 05:22:00,
2013-06-17 01:27:00,67.3,64.9,29.88,WSW,243,0.0,0.0,92,0.00,CLR,,0.00,0.0,WeatherDisplay:10.37,2013-06-17 05:27:00,
2013-06-17 01:32:00,67.3,64.9,29.88,SW,234,0.0,0.0,92,0.00,CLR,,0.00,0.0,WeatherDisplay:10.37,2013-06-17 05:32:00,
2013-06-17 01:37:00,67.2,64.8,29.88,SW,234,0.0,0.0,92,0.00,CLR,,0.00,0.0,WeatherDisplay:10.37,2013-06-17 05:37:00,
2013-06-17 01:42:00,67.0,64.9,29.88,SW,234,0.0,0.0,93,0.00,CLR,,0.00,0.0,WeatherDisplay:10.37,2013-06-17 05:42:00,
2013-06-17 01:47:00,66.8,64.7,29.88,SW,234,0.0,0.0,93,0.00,CLR,,0.00,0.0,WeatherDisplay:10.37,2013-06-17 05:47:00,
2013-06-17 01:52:00,66.7,64.6,29.88,SW,234,0.0,0.0,93,0.00,CLR,,0.00,0.0,WeatherDisplay:10.37,2013-06-17 05:52:00,
2013-06-17 01:57:00,66.7,64.9,29.88,SW,234,0.0,0.0,94,0.00,CLR,,0.00,0.0,WeatherDisplay:10.37,2013-06-17 05:57:00,
2013-06-17 02:02:00,66.6,64.8,29.88,SW,234,0.0,0.0,94,0.00,CLR,,0.00,0.0,WeatherDisplay:10.37,2013-06-17 06:02:00,
2013-06-17 02:07:00,66.6,64.8,29.88,SW,234,1.2,1.2,94,0.00,CLR,,0.00,0.0,WeatherDisplay:10.37,2013-06-17 06:07:00,
2013-06-17 02:12:00,66.6,64.8,29.88,SW,223,2.3,2.3,94,0.00,CLR,,0.00,0.0,WeatherDisplay:10.37,2013-06-17 06:12:00,
2013-06-17 02:17:00,66.6,64.8,29.88,SW,223,0.0,0.0,94,0.00,CLR,,0.00,0.0,WeatherDisplay:10.37,2013-06-17 06:17:00,
2013-06-17 02:22:00,66.5,64.7,29.88,SW,223,0.0,0.0,94,0.00,CLR,,0.00,0.0,WeatherDisplay:10.37,2013-06-17 06:22:00,
2013-06-17 02:27:00,66.6,64.8,29.88,SW,223,0.0,0.0,94,0.00,CLR,,0.00,0.0,WeatherDisplay:10.37,2013-06-17 06:27:00,
2013-06-17 02:32:00,66.5,64.7,29.88,SW,223,0.0,0.0,94,0.00,CLR,,0.00,0.0,WeatherDisplay:10.37,2013-06-17 06:32:00,
2013-06-17 02:37:00,66.4,64.6,29.88,SW,223,0.0,0.0,94,0.00,CLR,,0.00,0.0,WeatherDisplay:10.37,2013-06-17 06:37:00,
2013-06-17 02:42:00,66.3,64.5,29.88,SW,223,0.0,0.0,94,0.00,CLR,,0.00,0.0,WeatherDisplay:10.37,2013-06-17 06:42:00,
2013-06-17 02:47:00,66.2,64.4,29.88,SW,223,0.0,0.1,94,0.00,CLR,,0.00,0.0,WeatherDisplay:10.37,2013-06-17 06:47:00,
2013-06-17 02:52:00,66.1,64.3,29.87,SW,223,0.0,0.0,94,0.00,CLR,,0.00,0.0,WeatherDisplay:10.37,2013-06-17 06:52:00,
2013-06-17 02:57:00,66.2,64.4,29.88,SW,223,0.0,0.0,94,0.00,CLR,,0.00,0.0,WeatherDisplay:10.37,2013-06-17 06:57:00,
2013-06-17 03:02:00,66.1,64.3,29.87,SW,223,0.0,0.0,94,0.00,CLR,,0.00,0.0,WeatherDisplay:10.37,2013-06-17 07:02:00,
2013-06-17 03:07:00,66.1,64.3,29.87,SW,223,1.2,1.2,94,0.00,CLR,,0.00,0.0,WeatherDisplay:10.37,2013-06-17 07:07:00,
2013-06-17 03:12:00,66.1,64.3,29.87,SW,223,0.0,0.0,94,0.00,CLR,,0.00,0.0,WeatherDisplay:10.37,2013-06-17 07:12:00,
2013-06-17 03:17:00,66.1,64.3,29.87,SW,223,0.0,0.0,94,0.00,CLR,,0.00,0.0,WeatherDisplay:10.37,2013-06-17 07:17:00,
2013-06-17 03:22:00,66.0,64.2,29.87,SW,223,0.0,0.0,94,0.00,CLR,,0.00,0.0,WeatherDisplay:10.37,2013-06-17 07:22:00,
2013-06-17 03:27:00,66.0,64.2,29.87,SW,223,0.0,0.0,94,0.00,CLR,,0.00,0.0,WeatherDisplay:10.37,2013-06-17 07:27:00,
2013-06-17 03:32:00,66.0,64.2,29.88,SW,223,0.0,0.0,94,0.00,CLR,,0.00,0.0,WeatherDisplay:10.37,2013-06-17 07:32:00,
2013-06-17 03:37:00,66.0,64.2,29.88,SW,223,0.0,0.0,94,0.00,CLR,,0.00,0.0,WeatherDisplay:10.37,2013-06-17 07:37:00,
2013-06-17 03:42:00,66.0,64.2,29.88,SW,223,0.0,0.0,94,0.00,CLR,,0.00,0.0,WeatherDisplay:10.37,2013-06-17 07:42:00,
2013-06-17 03:47:00,65.9,64.1,29.88,SW,223,0.0,0.0,94,0.00,CLR,,0.00,0.0,WeatherDisplay:10.37,2013-06-17 07:47:00,
2013-06-17 03:52:00,65.9,64.1,29.88,SSW,195,0.0,0.0,94,0.00,CLR,,0.00,0.0,WeatherDisplay:10.37,2013-06-17 07:52:00,
2013-06-17 03:57:00,65.9,64.1,29.88,SSW,195,0.0,0.0,94,0.00,CLR,,0.00,0.0,WeatherDisplay:10.37,2013-06-17 07:57:00,
2013-06-17 04:02:00,65.9,64.1,29.88,SSW,195,0.0,0.0,94,0.00,CLR,,0.00,0.0,WeatherDisplay:10.37,2013-06-17 08:02:00,
2013-06-17 04:07:00,65.8,64.0,29.88,SSW,195,0.0,0.0,94,0.00,CLR,,0.00,0.0,WeatherDisplay:10.37,2013-06-17 08:07:00,
2013-06-17 04:12:00,65.6,63.8,29.88,SSW,195,0.0,0.0,94,0.00,CLR,,0.00,0.0,WeatherDisplay:10.37,2013-06-17 08:12:00,
2013-06-17 04:17:00,65.5,63.7,29.88,SSW,195,0.0,0.0,94,0.00,CLR,,0.00,0.0,WeatherDisplay:10.37,2013-06-17 08:17:00,
2013-06-17 04:22:00,65.4,63.9,29.89,SSW,195,0.0,0.0,95,0.00,CLR,,0.00,0.0,WeatherDisplay:10.37,2013-06-17 08:22:00,
2013-06-17 04:27:00,65.3,63.8,29.89,SSW,195,0.0,0.0,95,0.00,CLR,,0.00,0.0,WeatherDisplay:10.37,2013-06-17 08:27:00,
2013-06-17 04:32:00,65.2,63.7,29.89,SSW,195,0.0,0.0,95,0.00,CLR,,0.00,0.0,WeatherDisplay:10.37,2013-06-17 08:32:00,
2013-06-17 04:37:00,65.2,63.7,29.89,SSW,195,0.0,0.0,95,0.00,CLR,,0.00,0.0,WeatherDisplay:10.37,2013-06-17 08:37:00,
2013-06-17 04:42:00,65.2,63.7,29.89,SSW,195,0.0,0.0,95,0.00,CLR,,0.00,0.0,WeatherDisplay:10.37,2013-06-17 08:42:00,
2013-06-17 04:47:00,65.2,63.7,29.89,SSW,195,0.0,0.0,95,0.00,CLR,,0.00,0.0,WeatherDisplay:10.37,2013-06-17 08:47:00,
2013-06-17 04:52:00,65.2,63.7,29.89,SSW,195,0.0,0.0,95,0.00,CLR,,0.00,0.0,WeatherDisplay:10.37,2013-06-17 08:52:00,
2013-06-17 04:57:00,65.2,63.7,29.90,SSW,195,0.0,0.0,95,0.00,CLR,,0.00,0.0,WeatherDisplay:10.37,2013-06-17 08:57:00,
2013-06-17 05:02:00,65.2,63.7,29.90,SSW,195,0.0,0.0,95,0.00,CLR,,0.00,0.0,WeatherDisplay:10.37,2013-06-17 09:02:00,
2013-06-17 05:07:00,65.2,63.7,29.90,SSW,195,0.0,0.0,95,0.00,CLR,,0.00,0.0,WeatherDisplay:10.37,2013-06-17 09:07:00,
2013-06-17 05:12:00,65.2,63.7,29.90,SSW,195,0.0,0.0,95,0.00,CLR,,0.00,0.0,WeatherDisplay:10.37,2013-06-17 09:12:00,
2013-06-17 05:17:00,65.2,63.7,29.91,SSW,195,0.0,0.0,95,0.00,CLR,,0.00,0.0,WeatherDisplay:10.37,2013-06-17 09:17:00,
2013-06-17 05:22:00,65.2,63.7,29.91,SSW,195,0.0,0.0,95,0.00,CLR,,0.00,0.0,WeatherDisplay:10.37,2013-06-17 09:22:00,
2013-06-17 05:27:00,65.1,63.6,29.91,SSW,195,0.0,0.0,95,0.00,CLR,,0.00,0.0,WeatherDisplay:10.37,2013-06-17 09:27:00,
2013-06-17 05:32:00,65.0,63.5,29.91,SSW,195,0.0,0.0,95,0.00,CLR,,0.00,0.0,WeatherDisplay:10.37,2013-06-17 09:32:00,
2013-06-17 05:37:00,64.9,63.4,29.91,SSW,195,0.0,0.0,95,0.00,CLR,,0.00,0.0,WeatherDisplay:10.37,2013-06-17 09:37:00,
2013-06-17 05:42:00,64.8,63.0,29.91,SSW,195,0.0,0.0,94,0.00,CLR,,0.00,0.0,WeatherDisplay:10.37,2013-06-17 09:42:00,
2013-06-17 05:47:00,64.7,63.2,29.91,SSW,195,0.0,0.0,95,0.00,CLR,,0.00,7.0,WeatherDisplay:10.37,2013-06-17 09:47:00,
2013-06-17 05:52:00,64.7,63.2,29.91,SSW,195,0.0,0.0,95,0.00,CLR,,0.00,14.0,WeatherDisplay:10.37,2013-06-17 09:52:00,
2013-06-17 05:57:00,64.7,63.5,29.91,SSW,195,0.0,0.0,96,0.00,CLR,,0.00,16.0,WeatherDisplay:10.37,2013-06-17 09:57:00,
2013-06-17 06:02:00,64.8,63.3,29.91,SSW,195,0.0,0.0,95,0.00,SCT,,0.00,23.0,WeatherDisplay:10.37,2013-06-17 10:02:00,
2013-06-17 06:07:00,64.9,63.4,29.91,SSW,195,0.0,0.0,95,0.00,SCT,,0.00,47.0,WeatherDisplay:10.37,2013-06-17 10:07:00,
2013-06-17 06:12:00,65.0,63.5,29.91,SSW,195,0.0,0.0,95,0.00,SCT,,0.00,26.0,WeatherDisplay:10.37,2013-06-17 10:12:00,
2013-06-17 06:17:00,65.1,63.6,29.91,SSW,195,0.0,0.0,95,0.00,SCT,,0.00,28.0,WeatherDisplay:10.37,2013-06-17 10:17:00,
2013-06-17 06:22:00,65.2,63.7,29.91,SSW,195,0.0,0.0,95,0.00,SCT,,0.00,30.0,WeatherDisplay:10.37,2013-06-17 10:22:00,
2013-06-17 06:27:00,65.3,63.8,29.91,SSW,195,0.0,0.0,95,0.00,SCT,,0.00,46.0,WeatherDisplay:10.37,2013-06-17 10:27:00,
2013-06-17 06:32:00,65.5,64.0,29.91,SSW,195,0.0,0.0,95,0.00,SCT,,0.00,83.0,WeatherDisplay:10.37,2013-06-17 10:32:00,
2013-06-17 06:37:00,65.7,63.9,29.91,SSW,195,0.0,0.0,94,0.00,SCT,,0.00,113.0,WeatherDisplay:10.37,2013-06-17 10:37:00,
2013-06-17 06:42:00,66.2,64.7,29.91,SSW,195,0.0,0.0,95,0.00,SCT,,0.00,139.0,WeatherDisplay:10.37,2013-06-17 10:42:00,
2013-06-17 06:47:00,66.9,65.1,29.91,SSW,195,1.2,1.2,94,0.00,SCT,,0.00,63.0,WeatherDisplay:10.37,2013-06-17 10:47:00,
2013-06-17 06:52:00,67.3,64.9,29.91,SSW,195,1.2,1.2,92,0.00,SCT,,0.00,72.0,WeatherDisplay:10.37,2013-06-17 10:52:00,
2013-06-17 06:57:00,67.6,65.2,29.91,SSW,195,0.0,0.0,92,0.00,SCT,,0.00,163.0,WeatherDisplay:10.37,2013-06-17 10:57:00,
2013-06-17 07:02:00,67.8,65.4,29.92,SSW,195,0.0,0.0,92,0.00,CLR,,0.00,186.0,WeatherDisplay:10.37,2013-06-17 11:02:00,
2013-06-17 07:07:00,68.2,65.5,29.92,SSW,195,1.2,1.2,91,0.00,CLR,,0.00,195.0,WeatherDisplay:10.37,2013-06-17 11:07:00,
2013-06-17 07:12:00,68.7,65.6,29.92,SSW,195,2.3,2.3,90,0.00,CLR,,0.00,227.0,WeatherDisplay:10.37,2013-06-17 11:12:00,
2013-06-17 07:17:00,69.1,66.0,29.92,SSW,195,3.5,3.5,90,0.00,CLR,,0.00,206.0,WeatherDisplay:10.37,2013-06-17 11:17:00,
2013-06-17 07:22:00,69.4,66.0,29.92,SSW,195,2.3,2.3,89,0.00,CLR,,0.00,225.0,WeatherDisplay:10.37,2013-06-17 11:22:00,
2013-06-17 07:27:00,69.5,66.1,29.92,SSW,195,1.2,1.2,89,0.00,CLR,,0.00,91.0,WeatherDisplay:10.37,2013-06-17 11:27:00,
2013-06-17 07:32:00,69.5,66.1,29.92,SSW,195,3.5,3.5,89,0.00,CLR,,0.00,179.0,WeatherDisplay:10.37,2013-06-17 11:32:00,
2013-06-17 07:37:00,69.5,66.1,29.92,SSW,195,2.3,2.3,89,0.00,CLR,,0.00,225.0,WeatherDisplay:10.37,2013-06-17 11:37:00,
2013-06-17 07:42:00,69.7,66.3,29.92,SSW,195,2.3,2.3,89,0.00,CLR,,0.00,248.0,WeatherDisplay:10.37,2013-06-17 11:42:00,
2013-06-17 07:47:00,70.0,66.3,29.92,SSW,195,2.3,2.3,88,0.00,CLR,,0.00,274.0,WeatherDisplay:10.37,2013-06-17 11:47:00,
2013-06-17 07:52:00,70.3,66.6,29.92,WSW,249,3.5,3.5,88,0.00,CLR,,0.00,306.0,WeatherDisplay:10.37,2013-06-17 11:52:00,
2013-06-17 07:57:00,70.8,67.1,29.93,WSW,245,3.5,3.5,88,0.00,CLR,,0.00,309.0,WeatherDisplay:10.37,2013-06-17 11:57:00,
2013-06-17 08:02:00,71.3,67.6,29.93,WSW,244,2.3,2.3,88,0.00,CLR,,0.00,325.0,WeatherDisplay:10.37,2013-06-17 12:02:00,
2013-06-17 08:07:00,71.8,67.4,29.93,SSW,205,3.5,3.5,86,0.00,CLR,,0.00,355.0,WeatherDisplay:10.37,2013-06-17 12:07:00,
2013-06-17 08:12:00,72.3,67.9,29.93,SW,215,3.5,3.5,86,0.00,CLR,,0.00,369.0,WeatherDisplay:10.37,2013-06-17 12:12:00,
2013-06-17 08:17:00,72.6,67.5,29.93,SSW,213,3.5,3.5,84,0.00,CLR,,0.00,378.0,WeatherDisplay:10.37,2013-06-17 12:17:00,
2013-06-17 08:22:00,73.0,68.2,29.92,SSW,205,4.6,4.6,85,0.00,CLR,,0.00,394.0,WeatherDisplay:10.37,2013-06-17 12:22:00,
2013-06-17 08:27:00,73.5,67.7,29.93,SW,235,3.5,3.5,82,0.00,CLR,,0.00,413.0,WeatherDisplay:10.37,2013-06-17 12:27:00,
2013-06-17 08:32:00,73.9,67.7,29.93,SW,225,3.5,3.5,81,0.00,CLR,,0.00,427.0,WeatherDisplay:10.37,2013-06-17 12:32:00,
2013-06-17 08:37:00,74.4,68.2,29.93,West,275,4.0,4.0,81,0.00,CLR,,0.00,432.0,WeatherDisplay:10.37,2013-06-17 12:37:00,
2013-06-17 08:42:00,74.7,67.8,29.93,West,261,3.5,3.5,79,0.00,CLR,,0.00,432.0,WeatherDisplay:10.37,2013-06-17 12:42:00,
2013-06-17 08:47:00,74.9,67.6,29.92,SW,219,3.5,3.5,78,0.00,CLR,,0.00,380.0,WeatherDisplay:10.37,2013-06-17 12:47:00,
2013-06-17 08:52:00,75.1,68.1,29.93,SSW,197,3.5,3.5,79,0.00,CLR,,0.00,413.0,WeatherDisplay:10.37,2013-06-17 12:52:00,
2013-06-17 08:57:00,75.4,68.1,29.93,NW,306,6.9,6.9,78,0.00,CLR,,0.00,355.0,WeatherDisplay:10.37,2013-06-17 12:57:00,
2013-06-17 09:02:00,75.1,67.4,29.93,WNW,302,9.2,9.2,77,0.00,CLR,,0.00,339.0,WeatherDisplay:10.37,2013-06-17 13:02:00,
2013-06-17 09:07:00,74.9,67.6,29.93,NW,306,8.1,8.1,78,0.00,CLR,,0.00,413.0,WeatherDisplay:10.37,2013-06-17 13:07:00,
2013-06-17 09:12:00,75.4,68.1,29.93,West,279,5.0,5.0,78,0.00,CLR,,0.00,559.0,WeatherDisplay:10.37,2013-06-17 13:12:00,
2013-06-17 09:17:00,76.1,67.6,29.93,WNW,286,5.8,5.8,75,0.00,CLR,,0.00,598.0,WeatherDisplay:10.37,2013-06-17 13:17:00,
2013-06-17 09:22:00,76.5,68.0,29.93,West,267,4.6,4.6,75,0.00,CLR,,0.00,661.0,WeatherDisplay:10.37,2013-06-17 13:22:00,
2013-06-17 09:27:00,76.9,68.4,29.93,NW,306,6.9,6.9,75,0.00,CLR,,0.00,752.0,WeatherDisplay:10.37,2013-06-17 13:27:00,
2013-06-17 09:32:00,76.7,67.8,29.93,West,273,3.5,3.5,74,0.00,CLR,,0.00,287.0,WeatherDisplay:10.37,2013-06-17 13:32:00,
2013-06-17 09:37:00,76.4,67.9,29.92,WNW,299,6.0,6.0,75,0.00,CLR,,0.00,258.0,WeatherDisplay:10.37,2013-06-17 13:37:00,
2013-06-17 09:42:00,76.8,69.0,29.92,West,278,3.5,3.5,77,0.00,CLR,,0.00,689.0,WeatherDisplay:10.37,2013-06-17 13:42:00,
2013-06-17 09:47:00,77.1,67.8,29.92,WNW,294,5.8,5.8,73,0.00,CLR,,0.00,267.0,WeatherDisplay:10.37,2013-06-17 13:47:00,
2013-06-17 09:52:00,76.8,67.5,29.92,NW,306,6.9,6.9,73,0.00,CLR,,0.00,267.0,WeatherDisplay:10.37,2013-06-17 13:52:00,
2013-06-17 09:57:00,77.0,68.1,29.92,NW,308,8.1,8.1,74,0.00,CLR,,0.00,766.0,WeatherDisplay:10.37,2013-06-17 13:57:00,
2013-06-17 10:02:00,78.0,68.6,29.91,WNW,295,5.8,5.8,73,0.00,SCT,,0.00,780.0,WeatherDisplay:10.37,2013-06-17 14:02:00,
2013-06-17 10:07:00,78.5,68.7,29.91,WNW,303,4.6,4.6,72,0.00,SCT,,0.00,751.0,WeatherDisplay:10.37,2013-06-17 14:07:00,
2013-06-17 10:12:00,77.8,68.4,29.91,West,273,4.6,4.6,73,0.00,SCT,,0.00,534.0,WeatherDisplay:10.37,2013-06-17 14:12:00,
2013-06-17 10:17:00,78.1,68.3,29.91,SW,232,3.5,3.5,72,0.00,SCT,,0.00,821.0,WeatherDisplay:10.37,2013-06-17 14:17:00,
2013-06-17 10:22:00,78.8,69.0,29.91,West,261,3.5,3.5,72,0.00,SCT,,0.00,842.0,WeatherDisplay:10.37,2013-06-17 14:22:00,
2013-06-17 10:27:00,78.6,68.0,29.91,NW,315,4.0,4.0,70,0.00,SCT,,0.00,410.0,WeatherDisplay:10.37,2013-06-17 14:27:00,
2013-06-17 10:32:00,78.5,67.9,29.91,NW,313,4.6,4.6,70,0.00,SCT,,0.00,840.0,WeatherDisplay:10.37,2013-06-17 14:32:00,
2013-06-17 10:37:00,78.5,67.5,29.91,WNW,293,6.9,6.9,69,0.00,SCT,,0.00,807.0,WeatherDisplay:10.37,2013-06-17 14:37:00,
2013-06-17 10:42:00,78.5,69.5,29.91,SW,232,3.5,3.5,74,0.00,SCT,,0.00,740.0,WeatherDisplay:10.37,2013-06-17 14:42:00,
2013-06-17 10:47:00,78.9,67.4,29.91,WNW,295,8.1,8.1,68,0.00,SCT,,0.00,779.0,WeatherDisplay:10.37,2013-06-17 14:47:00,
2013-06-17 10:52:00,78.5,67.5,29.91,NNW,329,8.1,8.1,69,0.00,SCT,,0.00,777.0,WeatherDisplay:10.37,2013-06-17 14:52:00,
2013-06-17 10:57:00,78.7,68.9,29.91,NW,316,8.1,8.1,72,0.00,SCT,,0.00,809.0,WeatherDisplay:10.37,2013-06-17 14:57:00,
2013-06-17 11:02:00,79.4,70.4,29.91,WSW,244,4.6,4.6,74,0.00,CLR,,0.00,786.0,WeatherDisplay:10.37,2013-06-17 15:02:00,
2013-06-17 11:07:00,79.5,68.9,29.91,NW,311,8.1,8.1,70,0.00,CLR,,0.00,833.0,WeatherDisplay:10.37,2013-06-17 15:07:00,
2013-06-17 11:12:00,79.4,68.8,29.91,SW,224,4.6,4.6,70,0.00,CLR,,0.00,793.0,WeatherDisplay:10.37,2013-06-17 15:12:00,
2013-06-17 11:17:00,79.8,68.7,29.91,WNW,285,6.9,6.9,69,0.00,CLR,,0.00,840.0,WeatherDisplay:10.37,2013-06-17 15:17:00,
2013-06-17 11:22:00,80.0,68.9,29.91,SW,221,4.0,4.0,69,0.00,CLR,,0.00,870.0,WeatherDisplay:10.37,2013-06-17 15:22:00,
2013-06-17 11:27:00,79.4,68.3,29.91,West,281,3.5,3.5,69,0.00,CLR,,0.00,884.0,WeatherDisplay:10.37,2013-06-17 15:27:00,
2013-06-17 11:32:00,80.5,70.2,29.91,NW,309,7.0,7.0,71,0.00,CLR,,0.00,870.0,WeatherDisplay:10.37,2013-06-17 15:32:00,
2013-06-17 11:37:00,80.8,69.2,29.91,WNW,282,6.9,6.9,68,0.00,CLR,,0.00,888.0,WeatherDisplay:10.37,2013-06-17 15:37:00,
2013-06-17 11:42:00,81.2,69.2,29.91,West,277,4.0,4.0,67,0.00,CLR,,0.00,923.0,WeatherDisplay:10.37,2013-06-17 15:42:00,
2013-06-17 11:47:00,81.2,68.3,29.91,WSW,239,6.9,6.9,65,0.00,CLR,,0.00,937.0,WeatherDisplay:10.37,2013-06-17 15:47:00,
2013-06-17 11:52:00,81.3,69.3,29.91,SW,234,3.5,3.5,67,0.00,CLR,,0.00,923.0,WeatherDisplay:10.37,2013-06-17 15:52:00,
2013-06-17 11:57:00,81.5,69.0,29.91,WSW,257,3.5,3.5,66,0.00,CLR,,0.00,907.0,WeatherDisplay:10.37,2013-06-17 15:57:00,
2013-06-17 12:02:00,82.1,69.2,29.91,WSW,250,5.8,5.8,65,0.00,SCT,,0.00,1014.0,WeatherDisplay:10.37,2013-06-17 16:02:00,
2013-06-17 12:07:00,82.1,70.1,29.91,West,261,4.6,4.6,67,0.00,SCT,,0.00,1025.0,WeatherDisplay:10.37,2013-06-17 16:07:00,
2013-06-17 12:12:00,81.0,68.6,29.92,West,267,3.5,3.5,66,0.00,SCT,,0.00,237.0,WeatherDisplay:10.37,2013-06-17 16:12:00,
2013-06-17 12:17:00,81.2,67.9,29.92,WNW,294,5.8,5.8,64,0.00,SCT,,0.00,279.0,WeatherDisplay:10.37,2013-06-17 16:17:00,
2013-06-17 12:22:00,81.1,70.0,29.92,WNW,288,5.0,5.0,69,0.00,SCT,,0.00,1104.0,WeatherDisplay:10.37,2013-06-17 16:22:00,
2013-06-17 12:27:00,82.4,68.1,29.92,WNW,292,6.9,6.9,62,0.00,SCT,,0.00,680.0,WeatherDisplay:10.37,2013-06-17 16:27:00,
2013-06-17 12:32:00,82.0,71.2,29.91,NW,319,5.8,5.8,70,0.00,SCT,,0.00,1041.0,WeatherDisplay:10.37,2013-06-17 16:32:00,
2013-06-17 12:37:00,82.5,69.5,29.91,WNW,292,8.1,8.1,65,0.00,SCT,,0.00,476.0,WeatherDisplay:10.37,2013-06-17 16:37:00,
2013-06-17 12:42:00,81.9,70.3,29.91,WSW,257,5.8,5.8,68,0.00,SCT,,0.00,1144.0,WeatherDisplay:10.37,2013-06-17 16:42:00,
2013-06-17 12:47:00,82.3,70.2,29.91,SW,225,3.5,3.5,67,0.00,SCT,,0.00,1144.0,WeatherDisplay:10.37,2013-06-17 16:47:00,
2013-06-17 12:52:00,81.2,68.3,29.91,South,184,5.8,5.8,65,0.00,SCT,,0.00,176.0,WeatherDisplay:10.37,2013-06-17 16:52:00,
2013-06-17 12:57:00,80.0,68.9,29.91,SSE,158,3.5,3.5,69,0.00,SCT,,0.00,114.0,WeatherDisplay:10.37,2013-06-17 16:57:00,
2013-06-17 13:02:00,79.4,70.0,29.91,SW,232,3.5,3.5,73,0.00,BKN,,0.00,88.0,WeatherDisplay:10.37,2013-06-17 17:02:00,
2013-06-17 13:07:00,79.0,68.4,29.91,West,281,4.0,4.0,70,0.00,BKN,,0.00,93.0,WeatherDisplay:10.37,2013-06-17 17:07:00,
2013-06-17 13:12:00,78.9,68.3,29.91,NW,313,5.8,5.8,70,0.00,BKN,,0.00,232.0,WeatherDisplay:10.37,2013-06-17 17:12:00,
2013-06-17 13:17:00,80.7,70.0,29.91,SW,225,2.3,2.3,70,0.00,BKN,,0.00,1118.0,WeatherDisplay:10.37,2013-06-17 17:17:00,
2013-06-17 13:22:00,81.9,70.3,29.90,NW,308,3.5,3.5,68,0.00,BKN,,0.00,482.0,WeatherDisplay:10.37,2013-06-17 17:22:00,
2013-06-17 13:27:00,81.9,69.4,29.90,WNW,296,4.6,4.6,66,0.00,BKN,,0.00,373.0,WeatherDisplay:10.37,2013-06-17 17:27:00,
2013-06-17 13:32:00,81.6,69.6,29.90,SW,217,3.0,3.0,67,0.00,BKN,,0.00,318.0,WeatherDisplay:10.37,2013-06-17 17:32:00,
2013-06-17 13:37:00,81.6,68.2,29.90,WSW,240,8.1,8.1,64,0.00,BKN,,0.00,367.0,WeatherDisplay:10.37,2013-06-17 17:37:00,
2013-06-17 13:42:00,82.6,69.6,29.90,SW,235,5.8,5.8,65,0.00,BKN,,0.00,958.0,WeatherDisplay:10.37,2013-06-17 17:42:00,
2013-06-17 13:47:00,83.2,69.8,29.90,SSE,168,3.5,3.5,64,0.00,BKN,,0.00,969.0,WeatherDisplay:10.37,2013-06-17 17:47:00,
2013-06-17 13:52:00,83.4,69.5,29.90,WNW,289,5.8,5.8,63,0.00,BKN,,0.00,292.0,WeatherDisplay:10.37,2013-06-17 17:52:00,
2013-06-17 13:57:00,82.9,68.5,29.90,South,187,7.0,7.0,62,0.00,BKN,,0.00,325.0,WeatherDisplay:10.37,2013-06-17 17:57:00,
2013-06-17 14:02:00,83.1,69.7,29.90,SSW,213,7.0,7.0,64,0.00,SCT,,0.00,304.0,WeatherDisplay:10.37,2013-06-17 18:02:00,
2013-06-17 14:07:00,83.0,71.8,29.90,SSW,196,8.1,8.1,69,0.00,SCT,,0.00,925.0,WeatherDisplay:10.37,2013-06-17 18:07:00,
2013-06-17 14:12:00,83.5,69.1,29.90,SSW,192,5.8,5.8,62,0.00,SCT,,0.00,928.0,WeatherDisplay:10.37,2013-06-17 18:12:00,
2013-06-17 14:17:00,84.1,68.2,29.90,SSW,198,4.6,4.6,59,0.00,SCT,,0.00,895.0,WeatherDisplay:10.37,2013-06-17 18:17:00,
2013-06-17 14:22:00,83.9,70.4,29.89,South,182,7.0,7.0,64,0.00,SCT,,0.00,895.0,WeatherDisplay:10.37,2013-06-17 18:22:00,
2013-06-17 14:27:00,84.2,70.2,29.89,West,260,4.6,4.6,63,0.00,SCT,,0.00,921.0,WeatherDisplay:10.37,2013-06-17 18:27:00,
2013-06-17 14:32:00,83.6,68.2,29.90,SW,227,10.4,10.4,60,0.00,SCT,,0.00,229.0,WeatherDisplay:10.37,2013-06-17 18:32:00,
2013-06-17 14:37:00,82.5,67.7,29.90,SSW,198,4.6,4.6,61,0.00,SCT,,0.00,279.0,WeatherDisplay:10.37,2013-06-17 18:37:00,
2013-06-17 14:42:00,83.6,68.7,29.89,West,261,5.8,5.8,61,0.00,SCT,,0.00,1028.0,WeatherDisplay:10.37,2013-06-17 18:42:00,
2013-06-17 14:47:00,84.2,68.8,29.89,SW,222,6.0,6.0,60,0.00,SCT,,0.00,976.0,WeatherDisplay:10.37,2013-06-17 18:47:00,
2013-06-17 14:52:00,84.5,67.6,29.89,NW,309,5.8,5.8,57,0.00,SCT,,0.00,954.0,WeatherDisplay:10.37,2013-06-17 18:52:00,
2013-06-17 14:57:00,84.5,68.1,29.89,SW,215,5.8,5.8,58,0.00,SCT,,0.00,882.0,WeatherDisplay:10.37,2013-06-17 18:57:00,
2013-06-17 15:02:00,84.7,69.8,29.89,SW,226,3.5,3.5,61,0.00,SCT,,0.00,882.0,WeatherDisplay:10.37,2013-06-17 19:02:00,
2013-06-17 15:07:00,85.0,68.6,29.88,WSW,254,5.8,5.8,58,0.00,SCT,,0.00,882.0,WeatherDisplay:10.37,2013-06-17 19:07:00,
2013-06-17 15:12:00,85.2,69.3,29.88,West,269,3.5,3.5,59,0.00,SCT,,0.00,884.0,WeatherDisplay:10.37,2013-06-17 19:12:00,
2013-06-17 15:18:00,84.7,68.8,29.88,SSW,209,3.5,3.5,59,0.00,SCT,,0.00,944.0,WeatherDisplay:10.37,2013-06-17 19:18:00,
2013-06-17 15:23:00,85.4,69.4,29.88,SSW,204,9.2,9.2,59,0.00,SCT,,0.00,236.0,WeatherDisplay:10.37,2013-06-17 19:23:00,
2013-06-17 15:28:00,84.4,70.4,29.88,SW,226,4.6,4.6,63,0.00,SCT,,0.00,691.0,WeatherDisplay:10.37,2013-06-17 19:28:00,
2013-06-17 15:33:00,84.1,68.7,29.88,South,188,3.5,3.5,60,0.00,SCT,,0.00,221.0,WeatherDisplay:10.37,2013-06-17 19:33:00,
2013-06-17 15:38:00,83.0,68.6,29.87,SW,223,3.5,3.5,62,0.00,SCT,,0.00,207.0,WeatherDisplay:10.37,2013-06-17 19:38:00,
2013-06-17 15:43:00,82.4,68.1,29.88,SW,225,2.3,2.3,62,0.00,SCT,,0.00,127.0,WeatherDisplay:10.37,2013-06-17 19:43:00,
2013-06-17 15:48:00,82.2,67.4,29.88,SW,223,3.5,3.5,61,0.00,SCT,,0.00,70.0,WeatherDisplay:10.37,2013-06-17 19:48:00,
2013-06-17 15:53:00,82.2,68.3,29.88,NW,309,3.5,3.5,63,0.00,SCT,,0.00,33.0,WeatherDisplay:10.37,2013-06-17 19:53:00,
2013-06-17 15:58:00,81.6,69.1,29.89,West,268,4.0,4.0,66,0.01,RA,,0.01,21.0,WeatherDisplay:10.37,2013-06-17 19:58:00,
2013-06-17 16:03:00,80.3,70.0,29.90,WNW,288,17.0,17.0,71,0.02, +RA,,0.03,39.0,WeatherDisplay:10.37,2013-06-17 20:03:00,
2013-06-17 16:08:00,74.8,67.1,29.90,West,265,9.2,9.2,77,0.05, +RA,,0.06,93.0,WeatherDisplay:10.37,2013-06-17 20:08:00,
2013-06-17 16:13:00,71.8,67.0,29.89,South,178,8.1,8.1,85,0.15, +RA,,0.21,232.0,WeatherDisplay:10.37,2013-06-17 20:13:00,
2013-06-17 16:18:00,70.9,68.1,29.89,SSW,195,3.5,3.5,91,0.22, +RA,,0.22,258.0,WeatherDisplay:10.37,2013-06-17 20:18:00,
2013-06-17 16:23:00,71.1,68.3,29.89,South,188,3.5,3.5,91,0.22, +RA,,0.22,274.0,WeatherDisplay:10.37,2013-06-17 20:23:00,
2013-06-17 16:28:00,72.0,68.6,29.87,SE,142,2.3,2.3,89,0.22, +RA,,0.22,543.0,WeatherDisplay:10.37,2013-06-17 20:28:00,
2013-06-17 16:33:00,72.3,68.2,29.87,South,182,3.5,3.5,87,0.22, +RA,,0.22,183.0,WeatherDisplay:10.37,2013-06-17 20:33:00,
2013-06-17 16:38:00,72.1,68.0,29.87,South,176,1.2,1.2,87,0.22, +RA,,0.22,195.0,WeatherDisplay:10.37,2013-06-17 20:38:00,
2013-06-17 16:43:00,72.4,67.6,29.87,South,176,0.0,0.5,85,0.22, +RA,,0.22,264.0,WeatherDisplay:10.37,2013-06-17 20:43:00,
2013-06-17 16:48:00,73.1,68.7,29.86,South,177,0.0,0.0,86,0.22, +RA,,0.22,406.0,WeatherDisplay:10.37,2013-06-17 20:48:00,
2013-06-17 16:53:00,73.3,68.9,29.87,South,176,1.2,1.2,86,0.22, +RA,,0.22,125.0,WeatherDisplay:10.37,2013-06-17 20:53:00,
2013-06-17 16:58:00,73.2,69.8,29.86,South,177,1.2,0.0,89,0.21, +RA,,0.22,135.0,WeatherDisplay:10.37,2013-06-17 20:58:00,
2013-06-17 17:03:00,73.2,68.8,29.87,SSE,153,2.3,2.3,86,0.20,RA,,0.22,176.0,WeatherDisplay:10.37,2013-06-17 21:03:00,
2013-06-17 17:08:00,73.5,69.7,29.87,South,180,3.5,3.5,88,0.17,RA,,0.22,185.0,WeatherDisplay:10.37,2013-06-17 21:08:00,
2013-06-17 17:13:00,73.8,69.7,29.87,SSW,211,3.5,3.5,87,0.11,RA,,0.22,239.0,WeatherDisplay:10.37,2013-06-17 21:13:00,
2013-06-17 17:18:00,74.1,69.6,29.88,SSW,212,3.5,3.5,86,0.00,BKN,,0.22,483.0,WeatherDisplay:10.37,2013-06-17 21:18:00,
2013-06-17 17:23:00,74.5,69.7,29.88,South,172,3.0,3.0,85,0.00,BKN,,0.22,522.0,WeatherDisplay:10.37,2013-06-17 21:23:00,
2013-06-17 17:28:00,75.3,69.8,29.88,South,190,5.0,5.0,83,0.00,BKN,,0.22,520.0,WeatherDisplay:10.37,2013-06-17 21:28:00,
2013-06-17 17:33:00,75.8,69.6,29.88,SSW,195,3.5,3.5,81,0.00,BKN,,0.22,455.0,WeatherDisplay:10.37,2013-06-17 21:33:00,
2013-06-17 17:38:00,76.0,69.0,29.88,SW,218,3.5,3.5,79,0.00,BKN,,0.22,506.0,WeatherDisplay:10.37,2013-06-17 21:38:00,
2013-06-17 17:43:00,76.5,69.9,29.88,SSW,204,6.9,6.9,80,0.00,BKN,,0.22,503.0,WeatherDisplay:10.37,2013-06-17 21:43:00,
2013-06-17 17:48:00,76.6,69.2,29.88,SW,216,4.6,4.6,78,0.00,BKN,,0.22,373.0,WeatherDisplay:10.37,2013-06-17 21:48:00,
2013-06-17 17:53:00,76.8,69.4,29.88,SSW,203,3.5,3.5,78,0.00,BKN,,0.22,438.0,WeatherDisplay:10.37,2013-06-17 21:53:00,
2013-06-17 17:58:00,77.1,69.7,29.87,SW,217,4.0,4.0,78,0.00,BKN,,0.22,371.0,WeatherDisplay:10.37,2013-06-17 21:58:00,
2013-06-17 18:03:00,76.7,68.9,29.87,SSW,199,4.6,4.6,77,0.00,CLR,,0.22,162.0,WeatherDisplay:10.37,2013-06-17 22:03:00,
2013-06-17 18:08:00,75.8,68.1,29.87,South,191,3.5,3.5,77,0.00,CLR,,0.22,139.0,WeatherDisplay:10.37,2013-06-17 22:08:00,
2013-06-17 18:13:00,75.2,69.0,29.86,SSW,205,2.3,2.3,81,0.00,CLR,,0.22,155.0,WeatherDisplay:10.37,2013-06-17 22:13:00,
2013-06-17 18:18:00,75.0,68.8,29.86,SSW,205,2.3,2.3,81,0.00,CLR,,0.22,155.0,WeatherDisplay:10.37,2013-06-17 22:18:00,
2013-06-17 18:23:00,74.9,68.7,29.86,SE,146,2.3,2.3,81,0.00,CLR,,0.22,153.0,WeatherDisplay:10.37,2013-06-17 22:23:00,
2013-06-17 18:28:00,74.9,69.0,29.86,SSE,148,2.3,2.3,82,0.00,CLR,,0.22,176.0,WeatherDisplay:10.37,2013-06-17 22:28:00,
2013-06-17 18:33:00,75.0,69.1,29.86,SSE,148,1.2,1.2,82,0.00,CLR,,0.22,174.0,WeatherDisplay:10.37,2013-06-17 22:33:00,
2013-06-17 18:38:00,75.3,69.4,29.86,SSE,148,0.0,0.0,82,0.00,CLR,,0.22,165.0,WeatherDisplay:10.37,2013-06-17 22:38:00,
2013-06-17 18:43:00,75.7,69.8,29.87,SSE,148,0.0,0.0,82,0.00,CLR,,0.22,218.0,WeatherDisplay:10.37,2013-06-17 22:43:00,
2013-06-17 18:48:00,76.0,67.9,29.87,SSE,148,0.0,0.0,76,0.00,CLR,,0.22,216.0,WeatherDisplay:10.37,2013-06-17 22:48:00,
2013-06-17 18:53:00,76.5,69.5,29.87,SSE,148,0.0,0.0,79,0.00,CLR,,0.22,248.0,WeatherDisplay:10.37,2013-06-17 22:53:00,
2013-06-17 18:58:00,76.8,69.4,29.88,SSE,148,1.2,1.2,78,0.00,CLR,,0.22,118.0,WeatherDisplay:10.37,2013-06-17 22:58:00,
2013-06-17 19:03:00,76.9,69.5,29.87,SSE,148,0.0,0.0,78,0.00,CLR,,0.22,97.0,WeatherDisplay:10.37,2013-06-17 23:03:00,
2013-06-17 19:08:00,76.7,68.9,29.87,SSE,148,0.0,0.0,77,0.00,CLR,,0.22,93.0,WeatherDisplay:10.37,2013-06-17 23:08:00,
2013-06-17 19:13:00,76.4,68.7,29.88,SSE,148,0.0,0.0,77,0.00,CLR,,0.22,90.0,WeatherDisplay:10.37,2013-06-17 23:13:00,
2013-06-17 19:18:00,76.1,68.7,29.88,SSE,148,1.2,1.2,78,0.00,CLR,,0.22,95.0,WeatherDisplay:10.37,2013-06-17 23:18:00,
2013-06-17 19:23:00,76.0,69.4,29.88,SSE,148,1.2,1.2,80,0.00,CLR,,0.22,91.0,WeatherDisplay:10.37,2013-06-17 23:23:00,
2013-06-17 19:28:00,75.7,69.5,29.88,SSE,148,2.3,2.3,81,0.00,CLR,,0.22,83.0,WeatherDisplay:10.37,2013-06-17 23:28:00,
2013-06-17 19:33:00,75.5,69.3,29.88,SSE,148,1.2,1.2,81,0.00,CLR,,0.22,54.0,WeatherDisplay:10.37,2013-06-17 23:33:00,
2013-06-17 19:38:00,75.2,69.0,29.88,SSE,148,1.2,1.2,81,0.00,CLR,,0.22,51.0,WeatherDisplay:10.37,2013-06-17 23:38:00,
2013-06-17 19:43:00,74.9,68.7,29.88,SSE,148,1.2,1.2,81,0.00,CLR,,0.22,47.0,WeatherDisplay:10.37,2013-06-17 23:43:00,
2013-06-17 19:48:00,74.7,68.8,29.88,SSE,148,2.3,2.3,82,0.00,CLR,,0.22,39.0,WeatherDisplay:10.37,2013-06-17 23:48:00,
2013-06-17 19:53:00,74.4,68.9,29.88,SSE,148,1.2,1.2,83,0.00,CLR,,0.22,42.0,WeatherDisplay:10.37,2013-06-17 23:53:00,
2013-06-17 19:58:00,74.2,69.1,29.88,SSE,148,1.2,1.2,84,0.00,CLR,,0.22,46.0,WeatherDisplay:10.37,2013-06-17 23:58:00,
2013-06-17 20:03:00,74.0,68.9,29.88,SSE,148,0.0,0.0,84,0.00,CLR,,0.22,39.0,WeatherDisplay:10.37,2013-06-18 00:03:00,
2013-06-17 20:08:00,73.8,68.3,29.88,SSE,148,1.2,1.2,83,0.00,CLR,,0.22,35.0,WeatherDisplay:10.37,2013-06-18 00:08:00,
2013-06-17 20:13:00,73.8,68.7,29.88,SSE,148,0.0,0.2,84,0.00,CLR,,0.22,25.0,WeatherDisplay:10.37,2013-06-18 00:13:00,
2013-06-17 20:18:00,73.8,68.7,29.88,SSE,148,1.2,1.2,84,0.00,CLR,,0.22,14.0,WeatherDisplay:10.37,2013-06-18 00:18:00,
2013-06-17 20:23:00,73.7,68.6,29.88,SSE,148,1.2,0.0,84,0.00,CLR,,0.22,7.0,WeatherDisplay:10.37,2013-06-18 00:23:00,
2013-06-17 20:28:00,73.4,67.9,29.88,SSE,148,1.2,0.0,83,0.00,CLR,,0.22,5.0,WeatherDisplay:10.37,2013-06-18 00:28:00,
2013-06-17 20:33:00,73.1,68.0,29.88,SSE,147,2.3,2.3,84,0.00,CLR,,0.22,0.0,WeatherDisplay:10.37,2013-06-18 00:33:00,
2013-06-17 20:38:00,72.9,67.8,29.88,SSE,147,0.0,0.0,84,0.00,CLR,,0.22,0.0,WeatherDisplay:10.37,2013-06-18 00:38:00,
2013-06-17 20:43:00,72.7,67.6,29.88,SSE,147,1.2,1.2,84,0.00,CLR,,0.22,0.0,WeatherDisplay:10.37,2013-06-18 00:43:00,
2013-06-17 20:48:00,72.5,67.4,29.88,SSE,147,0.0,0.0,84,0.00,CLR,,0.22,0.0,WeatherDisplay:10.37,2013-06-18 00:48:00,
2013-06-17 20:53:00,72.4,67.3,29.88,SSE,148,2.0,2.0,84,0.00,CLR,,0.22,0.0,WeatherDisplay:10.37,2013-06-18 00:53:00,
2013-06-17 20:58:00,72.3,67.2,29.88,SSE,148,0.0,0.0,84,0.00,CLR,,0.22,0.0,WeatherDisplay:10.37,2013-06-18 00:58:00,
2013-06-17 21:03:00,72.2,67.1,29.88,SSE,148,0.0,0.0,84,0.00,CLR,,0.22,0.0,WeatherDisplay:10.37,2013-06-18 01:03:00,
2013-06-17 21:08:00,72.2,67.4,29.88,SSE,148,0.0,0.0,85,0.00,CLR,,0.22,0.0,WeatherDisplay:10.37,2013-06-18 01:08:00,
2013-06-17 21:13:00,72.1,67.3,29.88,SSE,148,0.0,0.0,85,0.00,CLR,,0.22,0.0,WeatherDisplay:10.37,2013-06-18 01:13:00,
2013-06-17 21:18:00,71.9,66.8,29.88,SSE,148,0.0,0.0,84,0.00,CLR,,0.22,0.0,WeatherDisplay:10.37,2013-06-18 01:18:00,
2013-06-17 21:23:00,71.6,66.8,29.89,SSE,148,0.0,0.0,85,0.00,CLR,,0.22,0.0,WeatherDisplay:10.37,2013-06-18 01:23:00,
2013-06-17 21:28:00,71.4,66.7,29.89,SSE,148,1.2,1.2,85,0.00,CLR,,0.22,0.0,WeatherDisplay:10.37,2013-06-18 01:28:00,
2013-06-17 21:33:00,71.1,66.7,29.89,SSE,148,0.0,0.0,86,0.00,CLR,,0.22,0.0,WeatherDisplay:10.37,2013-06-18 01:33:00,
2013-06-17 21:38:00,70.8,66.7,29.89,SSE,148,0.0,0.0,87,0.00,CLR,,0.22,0.0,WeatherDisplay:10.37,2013-06-18 01:38:00,
2013-06-17 21:43:00,70.9,66.8,29.89,SSE,148,0.0,0.0,87,0.00,CLR,,0.22,0.0,WeatherDisplay:10.37,2013-06-18 01:43:00,
2013-06-17 21:48:00,71.2,66.8,29.90,SSE,148,0.0,0.0,86,0.00,CLR,,0.22,0.0,WeatherDisplay:10.37,2013-06-18 01:48:00,
2013-06-17 21:53:00,71.4,67.0,29.90,SSE,148,0.0,0.0,86,0.00,CLR,,0.22,0.0,WeatherDisplay:10.37,2013-06-18 01:53:00,
2013-06-17 21:58:00,71.4,67.0,29.91,SSE,148,0.0,0.0,86,0.00,CLR,,0.22,0.0,WeatherDisplay:10.37,2013-06-18 01:58:00,
2013-06-17 22:03:00,71.5,66.8,29.91,SSE,148,1.2,1.2,85,0.00,CLR,,0.22,0.0,WeatherDisplay:10.37,2013-06-18 02:03:00,
2013-06-17 22:08:00,71.7,66.9,29.91,SSE,148,0.0,0.0,85,0.00,CLR,,0.22,0.0,WeatherDisplay:10.37,2013-06-18 02:08:00,
2013-06-17 22:13:00,71.8,67.0,29.91,SSE,148,0.0,0.0,85,0.00,CLR,,0.22,0.0,WeatherDisplay:10.37,2013-06-18 02:13:00,
2013-06-17 22:18:00,71.8,66.7,29.91,SSE,148,1.2,0.0,84,0.00,CLR,,0.22,0.0,WeatherDisplay:10.37,2013-06-18 02:18:00,
2013-06-17 22:23:00,71.9,66.8,29.91,SSE,148,1.2,0.0,84,0.00,CLR,,0.22,0.0,WeatherDisplay:10.37,2013-06-18 02:23:00,
2013-06-17 22:28:00,72.0,66.9,29.91,SSE,148,1.2,1.2,84,0.00,CLR,,0.22,0.0,WeatherDisplay:10.37,2013-06-18 02:28:00,
2013-06-17 22:33:00,72.1,67.3,29.91,SSE,148,2.0,2.0,85,0.00,CLR,,0.22,0.0,WeatherDisplay:10.37,2013-06-18 02:33:00,
2013-06-17 22:38:00,71.9,67.1,29.91,NNW,333,5.8,5.8,85,0.00,CLR,,0.22,0.0,WeatherDisplay:10.37,2013-06-18 02:38:00,
2013-06-17 22:43:00,71.1,67.0,29.91,NW,315,3.5,3.5,87,0.00,CLR,,0.22,0.0,WeatherDisplay:10.37,2013-06-18 02:43:00,
2013-06-17 22:48:00,71.1,67.7,29.91,ESE,113,3.5,3.5,89,0.00,CLR,,0.22,0.0,WeatherDisplay:10.37,2013-06-18 02:48:00,
2013-06-17 22:53:00,71.7,68.0,29.91,East,98,2.3,2.3,88,0.00,CLR,,0.22,0.0,WeatherDisplay:10.37,2013-06-18 02:53:00,
2013-06-17 22:58:00,71.9,67.8,29.92,East,98,0.0,0.0,87,0.00,CLR,,0.22,0.0,WeatherDisplay:10.37,2013-06-18 02:58:00,
2013-06-17 23:03:00,71.8,67.4,29.91,NW,316,1.2,1.2,86,0.00,CLR,,0.22,0.0,WeatherDisplay:10.37,2013-06-18 03:03:00,
2013-06-17 23:08:00,71.5,67.1,29.91,NW,316,0.0,0.0,86,0.00,CLR,,0.22,0.0,WeatherDisplay:10.37,2013-06-18 03:08:00,
2013-06-17 23:13:00,71.2,67.1,29.91,NE,51,1.2,1.2,87,0.00,CLR,,0.22,0.0,WeatherDisplay:10.37,2013-06-18 03:13:00,
2013-06-17 23:18:00,71.2,67.8,29.92,NE,51,1.2,1.2,89,0.00,CLR,,0.22,0.0,WeatherDisplay:10.37,2013-06-18 03:18:00,
2013-06-17 23:23:00,71.4,68.0,29.92,NE,51,1.2,0.0,89,0.00,CLR,,0.22,0.0,WeatherDisplay:10.37,2013-06-18 03:23:00,
2013-06-17 23:28:00,71.6,68.2,29.92,NE,51,0.0,0.0,89,0.00,CLR,,0.22,0.0,WeatherDisplay:10.37,2013-06-18 03:28:00,
2013-06-17 23:33:00,71.6,67.9,29.92,NE,51,1.2,0.0,88,0.00,CLR,,0.22,0.0,WeatherDisplay:10.37,2013-06-18 03:33:00,
2013-06-17 23:38:00,71.4,67.7,29.92,NE,51,1.2,0.0,88,0.00,CLR,,0.22,0.0,WeatherDisplay:10.37,2013-06-18 03:38:00,
2013-06-17 23:43:00,71.1,67.7,29.91,SE,132,3.5,3.5,89,0.00,CLR,,0.22,0.0,WeatherDisplay:10.37,2013-06-18 03:43:00,
2013-06-17 23:48:00,70.9,67.5,29.91,SE,125,2.3,2.3,89,0.00,CLR,,0.22,0.0,WeatherDisplay:10.37,2013-06-18 03:48:00,
2013-06-17 23:53:00,70.8,67.4,29.91,SE,137,2.3,2.3,89,0.00,CLR,,0.22,0.0,WeatherDisplay:10.37,2013-06-18 03:53:00,
2013-06-17 23:59:00,70.8,67.4,29.91,SE,139,2.3,2.3,89,0.00,CLR,,0.22,0.0,WeatherDisplay:10.37,2013-06-18 03:59:00,